sensor_id;sensor_type;location;lat;lon;timestamp;P1;durP1;ratioP1;P2;durP2;ratioP2
15104;SDS011;7653;48.994;9.212;2023-07-13T01:53:32;2.90;;;1.40;;
15104;SDS011;7653;48.994;9.212;2023-07-13T01:55:57;4.77;;;1.10;;
15104;SDS011;7653;48.994;9.212;2023-07-13T01:58:23;2.13;;;1.10;;
15104;SDS011;7653;48.994;9.212;2023-07-13T02:00:49;4.17;;;1.37;;
15104;SDS011;7653;48.994;9.212;2023-07-13T02:03:16;2.57;;;1.20;;
15104;SDS011;7653;48.994;9.212;2023-07-13T02:05:43;1.57;;;1.13;;
15104;SDS011;7653;48.994;9.212;2023-07-13T02:08:09;1.73;;;1.30;;
15104;SDS011;7653;48.994;9.212;2023-07-13T02:10:36;1.30;;;1.20;;
15104;SDS011;7653;48.994;9.212;2023-07-13T02:13:03;1.93;;;1.37;;
15104;SDS011;7653;48.994;9.212;2023-07-13T02:15:31;2.23;;;1.20;;
15104;SDS011;7653;48.994;9.212;2023-07-13T02:17:56;3.20;;;1.27;;
15104;SDS011;7653;48.994;9.212;2023-07-13T02:20:23;2.77;;;1.47;;
15104;SDS011;7653;48.994;9.212;2023-07-13T02:22:49;2.17;;;1.30;;
15104;SDS011;7653;48.994;9.212;2023-07-13T02:25:15;2.67;;;1.40;;
15104;SDS011;7653;48.994;9.212;2023-07-13T02:27:41;7.07;;;1.37;;
15104;SDS011;7653;48.994;9.212;2023-07-13T02:30:10;3.83;;;1.63;;
15104;SDS011;7653;48.994;9.212;2023-07-13T02:32:36;3.57;;;1.40;;
15104;SDS011;7653;48.994;9.212;2023-07-13T02:35:02;3.77;;;1.37;;
15104;SDS011;7653;48.994;9.212;2023-07-13T02:37:28;3.07;;;1.60;;
15104;SDS011;7653;48.994;9.212;2023-07-13T02:39:54;2.10;;;1.57;;
15104;SDS011;7653;48.994;9.212;2023-07-13T02:42:20;4.20;;;1.20;;
15104;SDS011;7653;48.994;9.212;2023-07-13T02:44:46;2.70;;;1.40;;
15104;SDS011;7653;48.994;9.212;2023-07-13T02:47:12;2.63;;;1.23;;
15104;SDS011;7653;48.994;9.212;2023-07-13T02:49:38;2.23;;;1.50;;
15104;SDS011;7653;48.994;9.212;2023-07-13T02:52:03;2.73;;;1.40;;
15104;SDS011;7653;48.994;9.212;2023-07-13T02:54:29;2.83;;;1.10;;
15104;SDS011;7653;48.994;9.212;2023-07-13T02:56:55;4.87;;;1.40;;
15104;SDS011;7653;48.994;9.212;2023-07-13T02:59:21;1.97;;;1.20;;
15104;SDS011;7653;48.994;9.212;2023-07-13T03:01:46;3.70;;;1.57;;
15104;SDS011;7653;48.994;9.212;2023-07-13T03:04:12;2.67;;;1.57;;
15104;SDS011;7653;48.994;9.212;2023-07-13T03:06:38;3.20;;;1.40;;
15104;SDS011;7653;48.994;9.212;2023-07-13T03:09:03;1.53;;;1.30;;
15104;SDS011;7653;48.994;9.212;2023-07-13T03:11:29;1.90;;;1.30;;
15104;SDS011;7653;48.994;9.212;2023-07-13T03:13:55;3.20;;;1.47;;
15104;SDS011;7653;48.994;9.212;2023-07-13T03:16:21;2.80;;;1.57;;
15104;SDS011;7653;48.994;9.212;2023-07-13T03:18:47;2.37;;;1.70;;
15104;SDS011;7653;48.994;9.212;2023-07-13T03:21:13;2.03;;;1.60;;
15104;SDS011;7653;48.994;9.212;2023-07-13T03:23:39;3.80;;;1.63;;
15104;SDS011;7653;48.994;9.212;2023-07-13T03:26:09;3.90;;;1.57;;
15104;SDS011;7653;48.994;9.212;2023-07-13T03:28:36;4.77;;;1.63;;
15104;SDS011;7653;48.994;9.212;2023-07-13T03:31:06;3.17;;;1.60;;
15104;SDS011;7653;48.994;9.212;2023-07-13T03:33:34;4.40;;;1.90;;
15104;SDS011;7653;48.994;9.212;2023-07-13T03:36:01;3.27;;;1.70;;
15104;SDS011;7653;48.994;9.212;2023-07-13T03:38:28;2.23;;;1.80;;
15104;SDS011;7653;48.994;9.212;2023-07-13T03:40:53;2.83;;;1.57;;
15104;SDS011;7653;48.994;9.212;2023-07-13T03:43:19;5.47;;;2.00;;
15104;SDS011;7653;48.994;9.212;2023-07-13T03:45:45;3.70;;;1.60;;
15104;SDS011;7653;48.994;9.212;2023-07-13T03:48:11;2.80;;;1.73;;
15104;SDS011;7653;48.994;9.212;2023-07-13T03:50:37;4.87;;;1.70;;
15104;SDS011;7653;48.994;9.212;2023-07-13T03:53:03;4.37;;;1.80;;
15104;SDS011;7653;48.994;9.212;2023-07-13T03:55:29;3.20;;;1.60;;
15104;SDS011;7653;48.994;9.212;2023-07-13T03:57:59;3.07;;;1.63;;
15104;SDS011;7653;48.994;9.212;2023-07-13T04:00:45;3.13;;;2.00;;
15104;SDS011;7653;48.994;9.212;2023-07-13T04:03:10;5.03;;;1.87;;
15104;SDS011;7653;48.994;9.212;2023-07-13T04:05:36;4.10;;;1.63;;
15104;SDS011;7653;48.994;9.212;2023-07-13T04:08:02;4.23;;;1.87;;
15104;SDS011;7653;48.994;9.212;2023-07-13T04:10:28;3.80;;;1.80;;
15104;SDS011;7653;48.994;9.212;2023-07-13T04:12:53;5.47;;;2.10;;
15104;SDS011;7653;48.994;9.212;2023-07-13T04:15:19;4.03;;;1.63;;
15104;SDS011;7653;48.994;9.212;2023-07-13T04:17:44;3.30;;;1.77;;
15104;SDS011;7653;48.994;9.212;2023-07-13T04:20:10;3.87;;;2.00;;
15104;SDS011;7653;48.994;9.212;2023-07-13T04:22:36;2.87;;;1.93;;
15104;SDS011;7653;48.994;9.212;2023-07-13T04:25:01;4.57;;;2.03;;
15104;SDS011;7653;48.994;9.212;2023-07-13T04:27:27;3.20;;;2.00;;
15104;SDS011;7653;48.994;9.212;2023-07-13T04:29:53;2.50;;;1.80;;
15104;SDS011;7653;48.994;9.212;2023-07-13T04:32:19;4.50;;;1.73;;
15104;SDS011;7653;48.994;9.212;2023-07-13T04:34:45;4.93;;;2.20;;
15104;SDS011;7653;48.994;9.212;2023-07-13T04:37:10;4.03;;;2.10;;
15104;SDS011;7653;48.994;9.212;2023-07-13T04:39:36;4.80;;;2.17;;
15104;SDS011;7653;48.994;9.212;2023-07-13T04:42:02;4.30;;;1.77;;
15104;SDS011;7653;48.994;9.212;2023-07-13T04:44:28;5.10;;;1.80;;
15104;SDS011;7653;48.994;9.212;2023-07-13T04:46:54;4.73;;;1.97;;
15104;SDS011;7653;48.994;9.212;2023-07-13T04:49:20;3.77;;;1.93;;
15104;SDS011;7653;48.994;9.212;2023-07-13T04:51:45;3.60;;;1.90;;
15104;SDS011;7653;48.994;9.212;2023-07-13T04:54:11;2.93;;;2.00;;
15104;SDS011;7653;48.994;9.212;2023-07-13T04:56:36;3.63;;;2.10;;
15104;SDS011;7653;48.994;9.212;2023-07-13T04:59:02;4.83;;;2.20;;
15104;SDS011;7653;48.994;9.212;2023-07-13T05:01:28;5.47;;;2.10;;
15104;SDS011;7653;48.994;9.212;2023-07-13T05:03:53;4.10;;;2.30;;
15104;SDS011;7653;48.994;9.212;2023-07-13T05:06:22;4.00;;;1.83;;
15104;SDS011;7653;48.994;9.212;2023-07-13T05:08:48;3.87;;;2.10;;
15104;SDS011;7653;48.994;9.212;2023-07-13T05:11:13;5.13;;;1.93;;
15104;SDS011;7653;48.994;9.212;2023-07-13T05:13:39;4.23;;;2.20;;
15104;SDS011;7653;48.994;9.212;2023-07-13T05:16:05;5.13;;;1.87;;
15104;SDS011;7653;48.994;9.212;2023-07-13T05:18:32;4.03;;;1.77;;
15104;SDS011;7653;48.994;9.212;2023-07-13T05:21:00;5.40;;;2.10;;
15104;SDS011;7653;48.994;9.212;2023-07-13T05:23:28;5.57;;;2.17;;
15104;SDS011;7653;48.994;9.212;2023-07-13T05:25:53;4.00;;;2.10;;
15104;SDS011;7653;48.994;9.212;2023-07-13T05:28:19;3.03;;;1.93;;
15104;SDS011;7653;48.994;9.212;2023-07-13T05:30:46;3.47;;;2.13;;
15104;SDS011;7653;48.994;9.212;2023-07-13T05:33:12;5.27;;;2.07;;
15104;SDS011;7653;48.994;9.212;2023-07-13T05:35:38;6.27;;;2.00;;
15104;SDS011;7653;48.994;9.212;2023-07-13T05:38:04;3.60;;;1.73;;
15104;SDS011;7653;48.994;9.212;2023-07-13T05:40:29;2.80;;;1.80;;
15104;SDS011;7653;48.994;9.212;2023-07-13T05:42:55;4.67;;;2.20;;
15104;SDS011;7653;48.994;9.212;2023-07-13T05:45:21;5.33;;;2.10;;
15104;SDS011;7653;48.994;9.212;2023-07-13T05:47:46;6.00;;;2.30;;
15104;SDS011;7653;48.994;9.212;2023-07-13T05:50:12;14.47;;;2.73;;
15104;SDS011;7653;48.994;9.212;2023-07-13T05:52:38;11.93;;;2.47;;
15104;SDS011;7653;48.994;9.212;2023-07-13T05:55:03;11.07;;;2.70;;
15104;SDS011;7653;48.994;9.212;2023-07-13T05:57:30;9.60;;;2.60;;
15104;SDS011;7653;48.994;9.212;2023-07-13T05:59:56;7.57;;;2.20;;
15104;SDS011;7653;48.994;9.212;2023-07-13T06:02:22;10.50;;;3.20;;
15104;SDS011;7653;48.994;9.212;2023-07-13T06:04:48;10.87;;;3.13;;
15104;SDS011;7653;48.994;9.212;2023-07-13T06:07:14;6.80;;;2.43;;
15104;SDS011;7653;48.994;9.212;2023-07-13T06:09:40;8.03;;;2.67;;
15104;SDS011;7653;48.994;9.212;2023-07-13T06:12:05;12.87;;;3.03;;
15104;SDS011;7653;48.994;9.212;2023-07-13T06:14:31;8.43;;;2.50;;
15104;SDS011;7653;48.994;9.212;2023-07-13T06:16:57;4.67;;;2.03;;
15104;SDS011;7653;48.994;9.212;2023-07-13T06:19:23;7.30;;;2.20;;
15104;SDS011;7653;48.994;9.212;2023-07-13T06:21:48;9.73;;;2.10;;
15104;SDS011;7653;48.994;9.212;2023-07-13T06:24:14;5.43;;;1.87;;
15104;SDS011;7653;48.994;9.212;2023-07-13T06:26:40;11.20;;;2.30;;
15104;SDS011;7653;48.994;9.212;2023-07-13T06:29:05;10.40;;;2.17;;
15104;SDS011;7653;48.994;9.212;2023-07-13T06:31:31;7.20;;;2.17;;
15104;SDS011;7653;48.994;9.212;2023-07-13T06:33:57;14.90;;;2.17;;
15104;SDS011;7653;48.994;9.212;2023-07-13T06:36:22;5.70;;;1.77;;
15104;SDS011;7653;48.994;9.212;2023-07-13T06:38:48;3.27;;;1.80;;
15104;SDS011;7653;48.994;9.212;2023-07-13T06:41:13;4.73;;;1.87;;
15104;SDS011;7653;48.994;9.212;2023-07-13T06:43:39;3.67;;;1.70;;
15104;SDS011;7653;48.994;9.212;2023-07-13T06:46:05;3.70;;;1.47;;
15104;SDS011;7653;48.994;9.212;2023-07-13T06:48:31;3.97;;;1.70;;
15104;SDS011;7653;48.994;9.212;2023-07-13T06:50:57;3.83;;;1.70;;
15104;SDS011;7653;48.994;9.212;2023-07-13T06:53:23;3.57;;;1.67;;
15104;SDS011;7653;48.994;9.212;2023-07-13T06:55:48;3.00;;;1.60;;
15104;SDS011;7653;48.994;9.212;2023-07-13T06:58:15;3.53;;;2.00;;
15104;SDS011;7653;48.994;9.212;2023-07-13T07:00:42;3.63;;;1.80;;
15104;SDS011;7653;48.994;9.212;2023-07-13T07:03:07;3.67;;;1.60;;
15104;SDS011;7653;48.994;9.212;2023-07-13T07:05:33;4.10;;;1.90;;
15104;SDS011;7653;48.994;9.212;2023-07-13T07:07:59;5.20;;;1.70;;
15104;SDS011;7653;48.994;9.212;2023-07-13T07:10:24;3.90;;;1.80;;
15104;SDS011;7653;48.994;9.212;2023-07-13T07:12:50;3.67;;;1.70;;
15104;SDS011;7653;48.994;9.212;2023-07-13T07:15:16;3.13;;;1.70;;
15104;SDS011;7653;48.994;9.212;2023-07-13T07:17:43;2.10;;;1.60;;
15104;SDS011;7653;48.994;9.212;2023-07-13T07:20:08;3.33;;;1.57;;
15104;SDS011;7653;48.994;9.212;2023-07-13T07:22:35;2.47;;;1.60;;
15104;SDS011;7653;48.994;9.212;2023-07-13T07:25:00;5.10;;;1.50;;
15104;SDS011;7653;48.994;9.212;2023-07-13T07:27:26;1.77;;;1.50;;
15104;SDS011;7653;48.994;9.212;2023-07-13T07:29:52;3.70;;;1.57;;
15104;SDS011;7653;48.994;9.212;2023-07-13T07:32:18;2.93;;;1.77;;
15104;SDS011;7653;48.994;9.212;2023-07-13T07:34:45;2.77;;;1.67;;
15104;SDS011;7653;48.994;9.212;2023-07-13T07:37:11;2.73;;;1.30;;
15104;SDS011;7653;48.994;9.212;2023-07-13T07:39:38;2.83;;;1.43;;
15104;SDS011;7653;48.994;9.212;2023-07-13T07:42:04;4.23;;;1.50;;
15104;SDS011;7653;48.994;9.212;2023-07-13T07:44:30;3.23;;;1.40;;
15104;SDS011;7653;48.994;9.212;2023-07-13T07:46:57;2.33;;;1.33;;
15104;SDS011;7653;48.994;9.212;2023-07-13T07:49:23;2.93;;;1.40;;
15104;SDS011;7653;48.994;9.212;2023-07-13T07:51:48;2.77;;;1.40;;
15104;SDS011;7653;48.994;9.212;2023-07-13T07:54:14;3.73;;;1.50;;
15104;SDS011;7653;48.994;9.212;2023-07-13T07:56:41;3.27;;;1.70;;
15104;SDS011;7653;48.994;9.212;2023-07-13T07:59:07;1.83;;;1.30;;
15104;SDS011;7653;48.994;9.212;2023-07-13T08:01:33;3.67;;;1.47;;
15104;SDS011;7653;48.994;9.212;2023-07-13T08:03:58;2.07;;;1.27;;
15104;SDS011;7653;48.994;9.212;2023-07-13T08:06:24;2.43;;;1.43;;
15104;SDS011;7653;48.994;9.212;2023-07-13T08:08:50;2.83;;;1.40;;
15104;SDS011;7653;48.994;9.212;2023-07-13T08:11:16;2.27;;;1.50;;
15104;SDS011;7653;48.994;9.212;2023-07-13T08:13:42;1.80;;;1.10;;
15104;SDS011;7653;48.994;9.212;2023-07-13T08:16:07;4.73;;;1.50;;
15104;SDS011;7653;48.994;9.212;2023-07-13T08:18:33;2.30;;;1.20;;
15104;SDS011;7653;48.994;9.212;2023-07-13T08:21:02;2.47;;;1.30;;
15104;SDS011;7653;48.994;9.212;2023-07-13T08:23:29;2.33;;;1.13;;
15104;SDS011;7653;48.994;9.212;2023-07-13T08:25:55;1.37;;;0.80;;
15104;SDS011;7653;48.994;9.212;2023-07-13T08:28:22;2.30;;;1.10;;
15104;SDS011;7653;48.994;9.212;2023-07-13T08:30:47;3.83;;;2.00;;
15104;SDS011;7653;48.994;9.212;2023-07-13T08:33:17;2.70;;;1.00;;
15104;SDS011;7653;48.994;9.212;2023-07-13T08:35:47;1.57;;;1.03;;
15104;SDS011;7653;48.994;9.212;2023-07-13T08:38:15;3.27;;;1.73;;
15104;SDS011;7653;48.994;9.212;2023-07-13T08:40:41;3.20;;;1.00;;
15104;SDS011;7653;48.994;9.212;2023-07-13T08:43:17;3.70;;;1.20;;
15104;SDS011;7653;48.994;9.212;2023-07-13T08:46:11;4.73;;;1.70;;
15104;SDS011;7653;48.994;9.212;2023-07-13T08:51:09;3.80;;;1.20;;
15104;SDS011;7653;48.994;9.212;2023-07-13T08:53:54;1.70;;;1.03;;
15104;SDS011;7653;48.994;9.212;2023-07-13T08:56:24;2.87;;;1.27;;
15104;SDS011;7653;48.994;9.212;2023-07-13T08:58:54;3.33;;;1.30;;
15104;SDS011;7653;48.994;9.212;2023-07-13T09:04:32;3.43;;;1.37;;
15104;SDS011;7653;48.994;9.212;2023-07-13T09:17:54;2.57;;;0.80;;
15104;SDS011;7653;48.994;9.212;2023-07-13T09:23:04;2.37;;;1.20;;
15104;SDS011;7653;48.994;9.212;2023-07-13T09:25:36;1.77;;;1.10;;
15104;SDS011;7653;48.994;9.212;2023-07-13T09:28:09;3.43;;;1.20;;
15104;SDS011;7653;48.994;9.212;2023-07-13T09:30:45;2.33;;;1.13;;
15104;SDS011;7653;48.994;9.212;2023-07-13T09:33:32;2.67;;;1.00;;
15104;SDS011;7653;48.994;9.212;2023-07-13T09:36:00;4.17;;;1.20;;
15104;SDS011;7653;48.994;9.212;2023-07-13T09:38:27;3.80;;;1.30;;
15104;SDS011;7653;48.994;9.212;2023-07-13T09:44:08;1.43;;;1.17;;
15104;SDS011;7653;48.994;9.212;2023-07-13T09:46:40;1.97;;;1.10;;
15104;SDS011;7653;48.994;9.212;2023-07-13T09:49:28;1.73;;;1.00;;
15104;SDS011;7653;48.994;9.212;2023-07-13T09:52:05;1.90;;;1.17;;
15104;SDS011;7653;48.994;9.212;2023-07-13T09:54:35;1.77;;;1.13;;
15104;SDS011;7653;48.994;9.212;2023-07-13T09:57:02;2.40;;;1.30;;
15104;SDS011;7653;48.994;9.212;2023-07-13T09:59:39;4.10;;;1.17;;
15104;SDS011;7653;48.994;9.212;2023-07-13T10:05:02;3.30;;;1.00;;
15104;SDS011;7653;48.994;9.212;2023-07-13T10:07:30;3.53;;;1.30;;
15104;SDS011;7653;48.994;9.212;2023-07-13T10:09:58;1.67;;;0.80;;
15104;SDS011;7653;48.994;9.212;2023-07-13T10:12:28;3.93;;;1.40;;
15104;SDS011;7653;48.994;9.212;2023-07-13T10:14:56;2.87;;;1.00;;
15104;SDS011;7653;48.994;9.212;2023-07-13T10:17:27;2.30;;;0.90;;
15104;SDS011;7653;48.994;9.212;2023-07-13T10:19:56;2.07;;;1.10;;
15104;SDS011;7653;48.994;9.212;2023-07-13T10:22:43;2.37;;;1.23;;
15104;SDS011;7653;48.994;9.212;2023-07-13T10:25:20;2.30;;;1.00;;
15104;SDS011;7653;48.994;9.212;2023-07-13T10:27:50;3.30;;;1.20;;
15104;SDS011;7653;48.994;9.212;2023-07-13T10:30:24;4.80;;;1.53;;
15104;SDS011;7653;48.994;9.212;2023-07-13T10:32:57;1.90;;;1.23;;
15104;SDS011;7653;48.994;9.212;2023-07-13T10:35:24;3.77;;;1.50;;
15104;SDS011;7653;48.994;9.212;2023-07-13T10:37:55;2.50;;;1.00;;
15104;SDS011;7653;48.994;9.212;2023-07-13T10:40:27;3.03;;;1.30;;
15104;SDS011;7653;48.994;9.212;2023-07-13T10:42:57;1.77;;;1.00;;
15104;SDS011;7653;48.994;9.212;2023-07-13T10:45:27;4.00;;;1.10;;
15104;SDS011;7653;48.994;9.212;2023-07-13T10:47:56;2.93;;;1.37;;
15104;SDS011;7653;48.994;9.212;2023-07-13T10:50:23;2.27;;;1.10;;
15104;SDS011;7653;48.994;9.212;2023-07-13T10:52:55;2.67;;;1.30;;
15104;SDS011;7653;48.994;9.212;2023-07-13T10:58:35;3.80;;;1.30;;
15104;SDS011;7653;48.994;9.212;2023-07-13T11:03:28;3.37;;;1.17;;
15104;SDS011;7653;48.994;9.212;2023-07-13T11:13:56;1.83;;;1.07;;
15104;SDS011;7653;48.994;9.212;2023-07-13T11:16:43;3.93;;;1.30;;
15104;SDS011;7653;48.994;9.212;2023-07-13T11:24:59;2.87;;;0.90;;
15104;SDS011;7653;48.994;9.212;2023-07-13T11:27:42;3.23;;;0.87;;
15104;SDS011;7653;48.994;9.212;2023-07-13T11:30:18;1.73;;;1.23;;
15104;SDS011;7653;48.994;9.212;2023-07-13T11:32:50;3.50;;;1.40;;
15104;SDS011;7653;48.994;9.212;2023-07-13T11:35:21;3.00;;;1.05;;
15104;SDS011;7653;48.994;9.212;2023-07-13T11:37:51;3.42;;;1.10;;
15104;SDS011;7653;48.994;9.212;2023-07-13T11:40:17;2.30;;;1.10;;
15104;SDS011;7653;48.994;9.212;2023-07-13T11:42:44;2.23;;;1.00;;
15104;SDS011;7653;48.994;9.212;2023-07-13T11:45:22;2.30;;;1.30;;
15104;SDS011;7653;48.994;9.212;2023-07-13T11:47:48;2.75;;;1.25;;
15104;SDS011;7653;48.994;9.212;2023-07-13T11:50:22;2.22;;;1.10;;
15104;SDS011;7653;48.994;9.212;2023-07-13T11:52:49;2.83;;;0.93;;
15104;SDS011;7653;48.994;9.212;2023-07-13T11:55:19;3.60;;;1.08;;
15104;SDS011;7653;48.994;9.212;2023-07-13T11:57:51;1.90;;;1.00;;
15104;SDS011;7653;48.994;9.212;2023-07-13T12:00:31;2.37;;;0.80;;
15104;SDS011;7653;48.994;9.212;2023-07-13T12:02:59;2.63;;;1.30;;
15104;SDS011;7653;48.994;9.212;2023-07-13T12:05:25;2.70;;;1.10;;
15104;SDS011;7653;48.994;9.212;2023-07-13T12:07:52;2.45;;;1.00;;
15104;SDS011;7653;48.994;9.212;2023-07-13T12:10:29;2.30;;;1.00;;
15104;SDS011;7653;48.994;9.212;2023-07-13T12:18:11;2.10;;;1.25;;
15104;SDS011;7653;48.994;9.212;2023-07-13T12:20:39;1.70;;;1.00;;
15104;SDS011;7653;48.994;9.212;2023-07-13T12:23:06;1.67;;;1.33;;
15104;SDS011;7653;48.994;9.212;2023-07-13T12:25:39;2.00;;;1.50;;
15104;SDS011;7653;48.994;9.212;2023-07-13T12:33:47;3.45;;;1.10;;
15104;SDS011;7653;48.994;9.212;2023-07-13T12:36:20;1.98;;;0.93;;
15104;SDS011;7653;48.994;9.212;2023-07-13T12:38:46;2.45;;;1.00;;
15104;SDS011;7653;48.994;9.212;2023-07-13T12:41:12;2.50;;;1.40;;
15104;SDS011;7653;48.994;9.212;2023-07-13T12:43:39;1.30;;;0.98;;
15104;SDS011;7653;48.994;9.212;2023-07-13T12:46:14;1.70;;;1.10;;
15104;SDS011;7653;48.994;9.212;2023-07-13T12:48:50;2.15;;;1.00;;
15104;SDS011;7653;48.994;9.212;2023-07-13T12:51:20;3.80;;;1.30;;
15104;SDS011;7653;48.994;9.212;2023-07-13T12:53:49;4.50;;;1.23;;
15104;SDS011;7653;48.994;9.212;2023-07-13T12:56:19;0.68;;;0.50;;
15104;SDS011;7653;48.994;9.212;2023-07-13T12:58:48;2.28;;;1.10;;
15104;SDS011;7653;48.994;9.212;2023-07-13T13:01:19;1.75;;;1.17;;
15104;SDS011;7653;48.994;9.212;2023-07-13T13:03:51;3.25;;;1.13;;
15104;SDS011;7653;48.994;9.212;2023-07-13T13:06:27;3.80;;;1.20;;
15104;SDS011;7653;48.994;9.212;2023-07-13T13:08:54;4.15;;;1.55;;
15104;SDS011;7653;48.994;9.212;2023-07-13T13:11:23;1.55;;;0.88;;
15104;SDS011;7653;48.994;9.212;2023-07-13T13:13:51;1.67;;;0.77;;
15104;SDS011;7653;48.994;9.212;2023-07-13T13:18:50;3.00;;;0.90;;
15104;SDS011;7653;48.994;9.212;2023-07-13T13:21:17;2.30;;;1.10;;
15104;SDS011;7653;48.994;9.212;2023-07-13T13:23:44;1.42;;;1.02;;
15104;SDS011;7653;48.994;9.212;2023-07-13T13:26:11;1.38;;;1.00;;
15104;SDS011;7653;48.994;9.212;2023-07-13T13:28:43;2.75;;;1.15;;
15104;SDS011;7653;48.994;9.212;2023-07-13T13:31:10;1.95;;;1.15;;
15104;SDS011;7653;48.994;9.212;2023-07-13T13:33:38;2.28;;;0.93;;
15104;SDS011;7653;48.994;9.212;2023-07-13T13:36:20;1.83;;;1.02;;
15104;SDS011;7653;48.994;9.212;2023-07-13T13:38:48;1.63;;;0.90;;
15104;SDS011;7653;48.994;9.212;2023-07-13T13:41:15;2.13;;;0.80;;
15104;SDS011;7653;48.994;9.212;2023-07-13T13:43:41;2.35;;;0.75;;
15104;SDS011;7653;48.994;9.212;2023-07-13T13:46:19;2.58;;;1.17;;
15104;SDS011;7653;48.994;9.212;2023-07-13T13:48:50;2.22;;;1.30;;
15104;SDS011;7653;48.994;9.212;2023-07-13T13:51:20;2.50;;;1.10;;
15104;SDS011;7653;48.994;9.212;2023-07-13T13:53:47;3.55;;;1.02;;
15104;SDS011;7653;48.994;9.212;2023-07-13T13:56:17;2.30;;;0.95;;
15104;SDS011;7653;48.994;9.212;2023-07-13T13:58:44;1.10;;;0.70;;
15104;SDS011;7653;48.994;9.212;2023-07-13T14:01:13;1.58;;;1.27;;
15104;SDS011;7653;48.994;9.212;2023-07-13T14:03:43;1.80;;;1.10;;
15104;SDS011;7653;48.994;9.212;2023-07-13T14:06:13;1.35;;;1.00;;
15104;SDS011;7653;48.994;9.212;2023-07-13T14:08:40;2.67;;;1.00;;
15104;SDS011;7653;48.994;9.212;2023-07-13T14:11:07;3.00;;;1.20;;
15104;SDS011;7653;48.994;9.212;2023-07-13T14:13:37;2.03;;;1.20;;
15104;SDS011;7653;48.994;9.212;2023-07-13T14:16:15;5.07;;;1.45;;
15104;SDS011;7653;48.994;9.212;2023-07-13T14:18:46;2.33;;;1.10;;
15104;SDS011;7653;48.994;9.212;2023-07-13T14:21:19;3.38;;;0.65;;
15104;SDS011;7653;48.994;9.212;2023-07-13T14:23:46;1.75;;;1.20;;
15104;SDS011;7653;48.994;9.212;2023-07-13T14:26:14;2.50;;;1.30;;
15104;SDS011;7653;48.994;9.212;2023-07-13T14:28:46;2.60;;;1.20;;
15104;SDS011;7653;48.994;9.212;2023-07-13T14:31:14;3.72;;;1.40;;
15104;SDS011;7653;48.994;9.212;2023-07-13T14:33:41;2.45;;;1.23;;
15104;SDS011;7653;48.994;9.212;2023-07-13T14:38:48;1.75;;;1.00;;
15104;SDS011;7653;48.994;9.212;2023-07-13T14:41:13;2.60;;;1.10;;
15104;SDS011;7653;48.994;9.212;2023-07-13T14:43:39;3.38;;;1.33;;
15104;SDS011;7653;48.994;9.212;2023-07-13T14:46:04;1.63;;;0.98;;
15104;SDS011;7653;48.994;9.212;2023-07-13T14:48:31;4.28;;;1.35;;
15104;SDS011;7653;48.994;9.212;2023-07-13T14:50:57;3.72;;;1.13;;
15104;SDS011;7653;48.994;9.212;2023-07-13T14:53:26;3.00;;;0.80;;
15104;SDS011;7653;48.994;9.212;2023-07-13T14:55:53;4.07;;;1.10;;
15104;SDS011;7653;48.994;9.212;2023-07-13T14:58:18;1.20;;;1.08;;
15104;SDS011;7653;48.994;9.212;2023-07-13T15:00:44;3.58;;;1.30;;
15104;SDS011;7653;48.994;9.212;2023-07-13T15:03:19;3.35;;;1.20;;
15104;SDS011;7653;48.994;9.212;2023-07-13T15:05:49;2.10;;;1.35;;
15104;SDS011;7653;48.994;9.212;2023-07-13T15:08:16;4.95;;;1.48;;
15104;SDS011;7653;48.994;9.212;2023-07-13T15:10:41;1.92;;;1.00;;
15104;SDS011;7653;48.994;9.212;2023-07-13T15:13:17;2.65;;;0.75;;
15104;SDS011;7653;48.994;9.212;2023-07-13T15:15:45;3.80;;;0.90;;
15104;SDS011;7653;48.994;9.212;2023-07-13T15:18:14;2.63;;;1.38;;
15104;SDS011;7653;48.994;9.212;2023-07-13T15:20:42;1.13;;;0.80;;
15104;SDS011;7653;48.994;9.212;2023-07-13T15:23:10;2.63;;;1.10;;
15104;SDS011;7653;48.994;9.212;2023-07-13T15:25:37;1.77;;;1.10;;
15104;SDS011;7653;48.994;9.212;2023-07-13T15:28:03;1.13;;;0.90;;
15104;SDS011;7653;48.994;9.212;2023-07-13T15:30:29;1.52;;;0.95;;
15104;SDS011;7653;48.994;9.212;2023-07-13T15:32:57;1.75;;;0.90;;
15104;SDS011;7653;48.994;9.212;2023-07-13T15:35:36;2.08;;;1.10;;
15104;SDS011;7653;48.994;9.212;2023-07-13T15:38:01;2.42;;;1.10;;
15104;SDS011;7653;48.994;9.212;2023-07-13T15:40:37;2.95;;;1.20;;
15104;SDS011;7653;48.994;9.212;2023-07-13T15:43:04;3.10;;;1.23;;
15104;SDS011;7653;48.994;9.212;2023-07-13T15:45:34;3.03;;;1.00;;
15104;SDS011;7653;48.994;9.212;2023-07-13T15:48:00;1.42;;;0.80;;
15104;SDS011;7653;48.994;9.212;2023-07-13T15:50:25;4.30;;;1.05;;
15104;SDS011;7653;48.994;9.212;2023-07-13T15:52:56;2.70;;;1.05;;
15104;SDS011;7653;48.994;9.212;2023-07-13T15:55:24;1.75;;;1.10;;
15104;SDS011;7653;48.994;9.212;2023-07-13T15:57:50;1.95;;;0.85;;
15104;SDS011;7653;48.994;9.212;2023-07-13T16:02:46;1.45;;;0.90;;
15104;SDS011;7653;48.994;9.212;2023-07-13T16:05:13;4.22;;;1.25;;
15104;SDS011;7653;48.994;9.212;2023-07-13T16:07:40;5.28;;;1.45;;
15104;SDS011;7653;48.994;9.212;2023-07-13T16:10:07;2.47;;;1.13;;
15104;SDS011;7653;48.994;9.212;2023-07-13T16:12:38;3.00;;;1.10;;
15104;SDS011;7653;48.994;9.212;2023-07-13T16:15:04;2.47;;;0.93;;
15104;SDS011;7653;48.994;9.212;2023-07-13T16:17:39;2.25;;;1.10;;
15104;SDS011;7653;48.994;9.212;2023-07-13T16:20:06;2.08;;;1.00;;
15104;SDS011;7653;48.994;9.212;2023-07-13T16:22:35;2.05;;;1.10;;
15104;SDS011;7653;48.994;9.212;2023-07-13T16:25:02;4.72;;;1.35;;
15104;SDS011;7653;48.994;9.212;2023-07-13T16:27:32;1.85;;;1.20;;
15104;SDS011;7653;48.994;9.212;2023-07-13T16:29:59;4.50;;;1.20;;
15104;SDS011;7653;48.994;9.212;2023-07-13T16:32:25;2.20;;;1.10;;
15104;SDS011;7653;48.994;9.212;2023-07-13T16:34:51;2.92;;;1.13;;
15104;SDS011;7653;48.994;9.212;2023-07-13T16:37:21;3.70;;;1.30;;
15104;SDS011;7653;48.994;9.212;2023-07-13T16:39:53;1.30;;;0.77;;
15104;SDS011;7653;48.994;9.212;2023-07-13T16:42:23;2.67;;;0.90;;
15104;SDS011;7653;48.994;9.212;2023-07-13T16:44:49;2.20;;;1.17;;
15104;SDS011;7653;48.994;9.212;2023-07-13T16:47:16;2.03;;;1.10;;
15104;SDS011;7653;48.994;9.212;2023-07-13T16:49:43;3.08;;;1.25;;
15104;SDS011;7653;48.994;9.212;2023-07-13T16:52:11;1.65;;;1.00;;
15104;SDS011;7653;48.994;9.212;2023-07-13T16:54:39;3.88;;;1.23;;
15104;SDS011;7653;48.994;9.212;2023-07-13T16:57:15;0.65;;;0.63;;
15104;SDS011;7653;48.994;9.212;2023-07-13T16:59:44;1.63;;;0.90;;
15104;SDS011;7653;48.994;9.212;2023-07-13T17:02:44;2.75;;;1.20;;
15104;SDS011;7653;48.994;9.212;2023-07-13T17:05:08;2.60;;;0.95;;
15104;SDS011;7653;48.994;9.212;2023-07-13T17:07:35;3.15;;;1.30;;
15104;SDS011;7653;48.994;9.212;2023-07-13T17:10:02;2.63;;;1.23;;
15104;SDS011;7653;48.994;9.212;2023-07-13T17:12:28;1.70;;;0.73;;
15104;SDS011;7653;48.994;9.212;2023-07-13T17:14:53;2.60;;;1.23;;
15104;SDS011;7653;48.994;9.212;2023-07-13T17:17:32;2.08;;;1.20;;
15104;SDS011;7653;48.994;9.212;2023-07-13T17:20:01;6.35;;;1.30;;
15104;SDS011;7653;48.994;9.212;2023-07-13T17:22:28;2.47;;;1.20;;
15104;SDS011;7653;48.994;9.212;2023-07-13T17:24:54;2.72;;;1.20;;
15104;SDS011;7653;48.994;9.212;2023-07-13T17:27:19;2.90;;;1.23;;
15104;SDS011;7653;48.994;9.212;2023-07-13T17:29:45;1.75;;;1.00;;
15104;SDS011;7653;48.994;9.212;2023-07-13T17:32:15;2.22;;;1.00;;
15104;SDS011;7653;48.994;9.212;2023-07-13T17:34:43;1.10;;;0.45;;
15104;SDS011;7653;48.994;9.212;2023-07-13T17:37:13;7.78;;;1.23;;
15104;SDS011;7653;48.994;9.212;2023-07-13T17:39:41;1.98;;;1.20;;
15104;SDS011;7653;48.994;9.212;2023-07-13T17:42:08;1.98;;;1.10;;
15104;SDS011;7653;48.994;9.212;2023-07-13T17:44:37;2.17;;;1.10;;
15104;SDS011;7653;48.994;9.212;2023-07-13T17:47:04;6.32;;;1.55;;
15104;SDS011;7653;48.994;9.212;2023-07-13T17:49:50;2.65;;;1.42;;
15104;SDS011;7653;48.994;9.212;2023-07-13T17:52:17;1.63;;;0.95;;
15104;SDS011;7653;48.994;9.212;2023-07-13T17:54:43;3.10;;;1.30;;
15104;SDS011;7653;48.994;9.212;2023-07-13T17:57:09;2.10;;;1.10;;
15104;SDS011;7653;48.994;9.212;2023-07-13T17:59:35;5.47;;;1.30;;
15104;SDS011;7653;48.994;9.212;2023-07-13T18:02:01;1.67;;;1.23;;